createdAt,value
2019-02-26T00:01:55.144Z,67.00
2019-02-26T00:04:24.702Z,67.50
2019-02-26T00:06:51.422Z,66.40
2019-02-26T00:09:20.778Z,67.60
2019-02-26T00:11:46.303Z,68.60
2019-02-26T00:14:15.507Z,67.80
2019-02-26T00:16:42.375Z,68.20
2019-02-26T00:19:09.778Z,68.40
2019-02-26T00:21:36.100Z,68.30
2019-02-26T00:24:02.111Z,67.60
2019-02-26T00:26:28.133Z,68.50
2019-02-26T00:28:54.171Z,68.90
2019-02-26T00:31:21.436Z,68.50
2019-02-26T00:33:48.119Z,67.80
2019-02-26T00:36:15.400Z,67.80
2019-02-26T00:38:42.687Z,69.90
2019-02-26T00:41:09.728Z,69.30
2019-02-26T00:43:36.936Z,69.80
2019-02-26T00:46:05.131Z,68.80
2019-02-26T00:48:31.969Z,69.40
2019-02-26T00:51:01.033Z,68.40
2019-02-26T00:53:28.372Z,69.20
2019-02-26T00:55:58.446Z,68.90
2019-02-26T00:58:22.823Z,68.80
2019-02-26T01:00:48.872Z,69.30
2019-02-26T01:03:15.364Z,70.10
2019-02-26T01:05:43.114Z,70.20
2019-02-26T01:08:12.775Z,69.50
2019-02-26T01:10:39.299Z,69.30
2019-02-26T01:13:07.141Z,68.70
2019-02-26T01:15:33.179Z,68.90
2019-02-26T01:18:00.952Z,68.40
2019-02-26T01:20:28.012Z,68.60
2019-02-26T01:22:55.094Z,68.60
2019-02-26T01:25:22.956Z,69.00
2019-02-26T01:27:51.124Z,69.70
2019-02-26T01:30:20.708Z,69.90
2019-02-26T01:32:44.898Z,69.70
2019-02-26T01:35:12.797Z,69.60
2019-02-26T01:37:38.851Z,69.60
2019-02-26T01:40:13.126Z,70.00
2019-02-26T01:42:38.021Z,70.00
2019-02-26T01:45:06.860Z,70.60
2019-02-26T01:47:32.875Z,71.80
2019-02-26T01:49:59.443Z,71.20
2019-02-26T01:52:25.527Z,72.40
2019-02-26T01:54:53.345Z,73.30
2019-02-26T01:57:19.520Z,72.30
2019-02-26T01:59:47.409Z,73.50
2019-02-26T02:02:17.311Z,72.90
2019-02-26T02:04:43.378Z,72.30
2019-02-26T02:07:09.432Z,72.30
2019-02-26T02:09:35.515Z,71.90
2019-02-26T02:12:02.187Z,72.40
2019-02-26T02:14:29.563Z,72.40
2019-02-26T02:16:55.575Z,72.60
2019-02-26T02:19:23.530Z,72.20
2019-02-26T02:21:51.415Z,72.50
2019-02-26T02:24:19.944Z,73.00
2019-02-26T02:26:47.730Z,73.00
2019-02-26T02:29:16.559Z,72.40
2019-02-26T02:31:41.319Z,73.00
2019-02-26T02:34:07.360Z,72.70
2019-02-26T02:36:33.375Z,73.40
2019-02-26T02:38:59.411Z,74.40
2019-02-26T02:41:25.427Z,73.90
2019-02-26T02:43:51.459Z,73.60
2019-02-26T02:46:17.477Z,73.90
2019-02-26T02:48:43.497Z,74.00
2019-02-26T02:51:13.177Z,74.00
2019-02-26T02:53:37.481Z,75.30
2019-02-26T02:56:04.254Z,76.00
2019-02-26T02:58:31.444Z,76.90
2019-02-26T03:01:00.182Z,77.10
2019-02-26T03:03:25.441Z,76.90
2019-02-26T03:05:51.497Z,76.70
2019-02-26T03:08:19.385Z,77.00
2019-02-26T03:10:45.479Z,76.80
2019-02-26T03:13:11.504Z,77.20
2019-02-26T03:15:37.559Z,77.80
2019-02-26T03:18:04.543Z,77.70
2019-02-26T03:20:36.224Z,78.00
2019-02-26T03:22:59.520Z,78.00
2019-02-26T03:25:27.021Z,78.00
2019-02-26T03:27:53.490Z,78.00
2019-02-26T03:30:27.420Z,78.40
2019-02-26T03:32:52.138Z,79.80
2019-02-26T03:35:19.439Z,79.40
2019-02-26T03:37:44.659Z,79.60
2019-02-26T03:40:12.501Z,79.60
2019-02-26T03:42:40.961Z,79.00
2019-02-26T03:45:12.801Z,79.50
2019-02-26T03:47:40.633Z,79.60
2019-02-26T03:50:12.306Z,81.00
2019-02-26T03:52:38.329Z,81.10
2019-02-26T03:55:06.821Z,81.00
2019-02-26T03:57:33.684Z,81.00
2019-02-26T03:59:59.727Z,81.40
2019-02-26T04:02:25.840Z,81.10
2019-02-26T04:04:54.225Z,82.00
2019-02-26T04:07:19.805Z,82.20
2019-02-26T04:09:47.334Z,81.80
2019-02-26T04:12:15.478Z,82.30
2019-02-26T04:14:41.720Z,82.30
2019-02-26T04:17:08.995Z,81.80
2019-02-26T04:19:35.799Z,82.00
2019-02-26T04:22:28.036Z,81.40
2019-02-26T04:25:01.036Z,82.60
2019-02-26T04:27:44.869Z,82.70
2019-02-26T04:30:44.280Z,83.30
2019-02-26T04:33:38.626Z,83.20
2019-02-26T04:36:22.242Z,82.30
2019-02-26T04:39:27.188Z,81.90
2019-02-26T04:42:03.636Z,81.70
2019-02-26T04:44:47.664Z,81.80
2019-02-26T04:47:11.597Z,82.90
2019-02-26T04:49:42.114Z,82.80
2019-02-26T04:52:07.715Z,83.50
2019-02-26T04:54:35.910Z,84.30
2019-02-26T04:57:02.247Z,83.50
2019-02-26T04:59:29.903Z,82.80
2019-02-26T05:01:57.495Z,83.00
2019-02-26T05:04:23.963Z,83.00
2019-02-26T05:06:49.979Z,82.70
2019-02-26T05:09:16.024Z,82.20
2019-02-26T05:11:42.035Z,82.30
2019-02-26T05:14:09.216Z,82.90
2019-02-26T05:16:37.819Z,83.00
2019-02-26T05:19:03.936Z,83.20
2019-02-26T05:21:32.000Z,83.20
2019-02-26T05:24:00.058Z,82.90
2019-02-26T05:26:25.820Z,83.10
2019-02-26T05:28:52.919Z,83.80
2019-02-26T05:31:19.096Z,84.00
2019-02-26T05:33:46.783Z,84.10
2019-02-26T05:36:15.028Z,84.40
2019-02-26T05:38:41.006Z,84.40
2019-02-26T05:41:07.049Z,84.90
2019-02-26T05:43:33.979Z,84.90
2019-02-26T05:46:03.844Z,84.90
2019-02-26T05:48:29.020Z,85.10
2019-02-26T05:50:57.352Z,85.30
2019-02-26T05:53:23.013Z,85.30
2019-02-26T05:55:51.210Z,85.10
2019-02-26T05:58:19.339Z,85.30
2019-02-26T06:00:45.026Z,85.60
2019-02-26T06:03:12.821Z,85.20
2019-02-26T06:05:43.413Z,85.50
2019-02-26T06:08:06.917Z,85.30
2019-02-26T06:10:33.017Z,85.20
2019-02-26T06:12:59.035Z,85.30
2019-02-26T06:15:25.937Z,85.00
2019-02-26T06:17:53.395Z,85.10
2019-02-26T06:20:21.012Z,85.00
2019-02-26T06:22:47.046Z,85.60
2019-02-26T06:25:18.579Z,85.20
2019-02-26T06:27:42.028Z,85.60
2019-02-26T06:30:12.163Z,85.40
2019-02-26T06:33:02.114Z,85.60
2019-02-26T06:35:26.404Z,85.20
2019-02-26T06:37:52.483Z,85.30
2019-02-26T06:40:18.579Z,85.50
2019-02-26T06:42:44.621Z,85.70
2019-02-26T06:45:15.551Z,88.60
2019-02-26T06:47:40.071Z,86.30
2019-02-26T06:50:10.547Z,86.10
2019-02-26T06:52:38.175Z,86.40
2019-02-26T06:55:09.274Z,86.00
2019-02-26T06:57:35.339Z,85.50
2019-02-26T07:00:04.109Z,85.50
2019-02-26T07:02:29.491Z,85.90
2019-02-26T07:04:55.519Z,86.00
2019-02-26T07:07:21.539Z,86.00
2019-02-26T07:09:47.583Z,85.20
2019-02-26T07:12:14.601Z,85.40
2019-02-26T07:14:41.563Z,85.10
2019-02-26T07:17:07.601Z,83.70
2019-02-26T07:19:35.625Z,84.00
2019-02-26T07:22:01.965Z,83.80
2019-02-26T07:24:27.965Z,83.00
2019-02-26T07:26:53.996Z,83.10
2019-02-26T07:29:20.012Z,84.60
2019-02-26T07:31:47.308Z,84.50
2019-02-26T07:34:15.735Z,82.50
2019-02-26T07:36:43.261Z,82.30
2019-02-26T07:39:10.416Z,83.10
2019-02-26T07:41:37.768Z,81.90
2019-02-26T07:44:03.880Z,81.00
2019-02-26T07:46:29.912Z,93.40
2019-02-26T07:48:57.177Z,81.40
2019-02-26T07:51:23.971Z,80.70
2019-02-26T07:53:51.631Z,79.30
2019-02-26T07:56:17.908Z,78.90
2019-02-26T07:58:43.980Z,78.60
2019-02-26T08:01:10.123Z,78.30
2019-02-26T08:03:36.369Z,83.30
2019-02-26T08:06:06.522Z,77.60
2019-02-26T08:08:30.331Z,78.10
2019-02-26T08:10:56.352Z,77.60
2019-02-26T08:13:24.411Z,77.50
2019-02-26T08:15:50.299Z,77.10
2019-02-26T08:18:16.331Z,77.20
2019-02-26T08:20:42.451Z,76.40
2019-02-26T08:23:08.486Z,75.30
2019-02-26T08:25:34.495Z,74.80
2019-02-26T08:28:01.863Z,73.70
2019-02-26T08:30:27.879Z,73.30
2019-02-26T08:32:56.119Z,73.60
2019-02-26T08:35:21.844Z,72.00
2019-02-26T08:37:48.467Z,72.60
2019-02-26T08:40:14.941Z,70.90
2019-02-26T08:45:14.947Z,86.80
2019-02-26T08:47:40.899Z,87.30
2019-02-26T08:50:10.115Z,88.30
2019-02-26T08:52:37.179Z,87.70
2019-02-26T08:55:07.146Z,87.80
2019-02-26T08:57:33.374Z,88.20
2019-02-26T08:59:59.408Z,87.60
2019-02-26T09:02:25.449Z,88.00
2019-02-26T09:04:51.471Z,69.00
2019-02-26T09:07:19.585Z,89.50
2019-02-26T09:09:47.542Z,89.30
2019-02-26T09:12:17.388Z,67.10
2019-02-26T09:14:45.116Z,67.80
2019-02-26T09:17:11.311Z,67.10
2019-02-26T09:19:38.042Z,65.90
2019-02-26T09:22:04.277Z,66.00
2019-02-26T09:24:30.344Z,65.20
2019-02-26T09:26:57.534Z,64.20
2019-02-26T09:29:24.299Z,64.00
2019-02-26T09:36:43.219Z,60.50
2019-02-26T09:39:10.663Z,60.40
2019-02-26T09:41:38.421Z,60.30
2019-02-26T09:44:06.707Z,60.00
2019-02-26T09:46:35.875Z,60.30
2019-02-26T09:49:03.115Z,58.90
2019-02-26T09:51:30.607Z,59.10
2019-02-26T09:53:58.967Z,58.60
2019-02-26T09:56:25.094Z,58.90
2019-02-26T09:58:51.129Z,57.70
2019-02-26T10:01:18.056Z,57.50
2019-02-26T10:03:44.220Z,57.30
2019-02-26T10:06:11.363Z,57.30
2019-02-26T10:08:38.188Z,58.10
2019-02-26T10:11:04.925Z,56.80
2019-02-26T10:13:31.160Z,56.40
2019-02-26T10:15:59.241Z,56.90
2019-02-26T10:18:25.668Z,56.20
2019-02-26T10:20:54.708Z,56.00
2019-02-26T10:23:21.783Z,56.20
2019-02-26T10:25:52.995Z,56.00
2019-02-26T10:28:19.009Z,56.00
2019-02-26T10:30:44.684Z,55.60
2019-02-26T10:33:10.719Z,55.30
2019-02-26T10:35:38.718Z,55.50
2019-02-26T10:38:07.684Z,55.60
2019-02-26T10:40:35.642Z,54.10
2019-02-26T10:43:01.924Z,55.20
2019-02-26T10:45:30.796Z,55.00
2019-02-26T10:47:58.918Z,54.20
2019-02-26T10:50:31.080Z,54.50
2019-02-26T10:52:57.868Z,55.40
2019-02-26T10:55:26.809Z,53.50
2019-02-26T10:57:52.478Z,52.10
2019-02-26T11:00:25.987Z,52.60
2019-02-26T11:02:54.203Z,52.70
2019-02-26T11:05:25.689Z,51.00
2019-02-26T11:07:47.891Z,51.30
2019-02-26T11:10:14.642Z,51.10
2019-02-26T11:12:42.151Z,50.90
2019-02-26T11:15:13.854Z,49.90
2019-02-26T11:17:39.994Z,50.50
2019-02-26T11:20:09.245Z,49.60
2019-02-26T11:22:35.250Z,49.30
2019-02-26T11:25:03.964Z,49.60
2019-02-26T11:27:30.004Z,50.00
2019-02-26T11:29:57.797Z,49.60
2019-02-26T11:32:24.072Z,49.90
2019-02-26T11:34:50.895Z,48.20
2019-02-26T11:37:20.156Z,48.90
2019-02-26T11:39:45.997Z,48.10
2019-02-26T11:42:12.014Z,47.10
2019-02-26T11:44:38.062Z,46.60
2019-02-26T11:47:04.070Z,47.50
2019-02-26T11:49:31.105Z,47.40
2019-02-26T11:51:57.391Z,47.40
2019-02-26T11:54:23.433Z,45.70
2019-02-26T11:56:50.668Z,46.70
2019-02-26T11:59:19.322Z,45.90
2019-02-26T12:01:45.325Z,46.70
2019-02-26T12:04:14.269Z,46.40
2019-02-26T12:06:39.308Z,46.70
2019-02-26T12:09:08.312Z,44.80
2019-02-26T12:11:34.031Z,45.60
2019-02-26T12:14:00.068Z,46.20
2019-02-26T12:16:28.417Z,45.30
2019-02-26T12:18:54.059Z,43.90
2019-02-26T12:21:20.079Z,44.40
2019-02-26T12:23:46.786Z,44.30
2019-02-26T12:26:13.075Z,44.00
2019-02-26T12:28:40.357Z,43.30
2019-02-26T12:31:08.138Z,42.70
2019-02-26T12:33:34.497Z,42.60
2019-02-26T12:36:02.039Z,42.40
2019-02-26T12:38:28.706Z,42.70
2019-02-26T12:40:54.767Z,41.80
2019-02-26T12:43:20.787Z,41.90
2019-02-26T12:45:51.433Z,41.30
2019-02-26T12:48:21.945Z,40.70
2019-02-26T12:50:45.370Z,40.90
2019-02-26T12:53:12.572Z,39.30
2019-02-26T12:55:42.344Z,38.50
2019-02-26T12:58:07.268Z,38.10
2019-02-26T13:00:34.980Z,38.40
2019-02-26T13:03:01.224Z,37.60
2019-02-26T13:05:27.260Z,37.60
2019-02-26T13:07:53.271Z,36.70
2019-02-26T13:10:24.707Z,36.90
2019-02-26T13:12:55.039Z,35.60
2019-02-26T13:15:20.203Z,35.50
2019-02-26T13:17:48.870Z,35.70
2019-02-26T13:20:22.745Z,35.50
2019-02-26T13:22:48.861Z,34.70
2019-02-26T13:25:17.686Z,34.00
2019-02-26T13:27:45.289Z,34.20
2019-02-26T13:30:19.643Z,33.50
2019-02-26T13:33:04.990Z,33.40
2019-02-26T13:35:14.064Z,33.00
2019-02-26T13:37:41.930Z,33.90
2019-02-26T13:40:24.620Z,34.00
2019-02-26T13:45:22.368Z,33.60
2019-02-26T13:47:48.585Z,34.20
2019-02-26T13:50:28.524Z,33.50
2019-02-26T13:52:54.576Z,33.10
2019-02-26T13:55:20.799Z,31.90
2019-02-26T13:57:46.824Z,32.50
2019-02-26T14:00:14.768Z,32.50
2019-02-26T14:02:40.780Z,31.30
2019-02-26T14:05:09.443Z,32.20
2019-02-26T14:07:35.466Z,32.50
2019-02-26T14:10:03.199Z,31.50
2019-02-26T14:12:29.216Z,31.90
2019-02-26T14:14:55.233Z,30.40
2019-02-26T14:17:21.287Z,30.60
2019-02-26T14:19:47.312Z,30.60
2019-02-26T14:22:13.355Z,30.70
2019-02-26T14:24:39.384Z,30.90
2019-02-26T14:27:05.422Z,32.70
2019-02-26T14:29:31.440Z,35.50
2019-02-26T14:31:57.467Z,36.50
2019-02-26T14:34:23.528Z,37.10
2019-02-26T14:36:49.564Z,36.60
2019-02-26T14:39:15.580Z,36.50
2019-02-26T14:41:41.615Z,36.90
2019-02-26T14:44:07.637Z,36.10
2019-02-26T14:46:33.676Z,37.30
2019-02-26T14:49:00.099Z,38.20
2019-02-26T14:51:26.363Z,37.70
2019-02-26T14:53:52.387Z,37.20
2019-02-26T14:56:18.452Z,38.10
2019-02-26T14:58:44.471Z,38.50
2019-02-26T15:01:10.508Z,38.40
2019-02-26T15:03:36.657Z,38.60
2019-02-26T15:06:02.791Z,38.00
2019-02-26T15:08:28.809Z,38.90
2019-02-26T15:10:55.151Z,38.90
2019-02-26T15:13:21.167Z,39.40
2019-02-26T15:15:47.201Z,39.00
2019-02-26T15:18:13.231Z,39.40
2019-02-26T15:20:39.276Z,39.10
2019-02-26T15:23:05.612Z,37.00
2019-02-26T15:25:31.852Z,37.80
2019-02-26T15:28:04.493Z,38.80
2019-02-26T15:30:45.711Z,39.30
2019-02-26T15:33:11.764Z,39.40
2019-02-26T15:35:37.803Z,39.60
2019-02-26T15:38:03.883Z,38.90
2019-02-26T15:40:29.908Z,39.80
2019-02-26T15:42:56.421Z,40.30
2019-02-26T15:45:29.556Z,40.50
2019-02-26T15:47:55.759Z,41.10
2019-02-26T15:50:21.776Z,42.10
2019-02-26T15:52:47.841Z,40.90
2019-02-26T15:55:25.945Z,40.90
2019-02-26T15:57:52.151Z,40.70
2019-02-26T16:00:19.868Z,40.30
2019-02-26T16:02:47.215Z,40.90
2019-02-26T16:05:13.333Z,41.00
2019-02-26T16:07:39.423Z,40.90
2019-02-26T16:10:07.943Z,41.00
2019-02-26T16:12:34.406Z,41.20
2019-02-26T16:15:00.418Z,41.30
2019-02-26T16:17:26.596Z,41.60
2019-02-26T16:19:52.692Z,41.80
2019-02-26T16:22:18.740Z,41.70
2019-02-26T16:24:44.857Z,41.70
2019-02-26T16:27:11.309Z,41.90
2019-02-26T16:29:37.632Z,42.20
2019-02-26T16:32:04.976Z,42.00
2019-02-26T16:34:31.600Z,42.00
2019-02-26T16:36:57.671Z,42.60
2019-02-26T16:39:24.731Z,42.80
2019-02-26T16:41:51.696Z,42.30
2019-02-26T16:44:17.711Z,42.90
2019-02-26T16:46:43.895Z,43.20
2019-02-26T16:49:09.907Z,43.50
2019-02-26T16:51:35.955Z,43.90
2019-02-26T16:54:02.173Z,43.70
2019-02-26T16:56:28.333Z,44.20
2019-02-26T16:58:54.347Z,44.40
2019-02-26T17:01:21.779Z,44.70
2019-02-26T17:03:48.419Z,45.00
2019-02-26T17:06:14.484Z,45.50
2019-02-26T17:08:40.503Z,45.60
2019-02-26T17:11:06.544Z,46.20
2019-02-26T17:13:32.964Z,46.40
2019-02-26T17:15:59.633Z,47.30
2019-02-26T17:18:26.344Z,47.90
2019-02-26T17:20:52.392Z,48.00
2019-02-26T17:23:18.408Z,48.60
2019-02-26T17:25:44.497Z,49.10
2019-02-26T17:28:12.326Z,49.40
2019-02-26T17:30:38.561Z,50.70
2019-02-26T17:33:04.675Z,51.80
2019-02-26T17:35:30.891Z,53.20
2019-02-26T17:37:57.012Z,54.50
2019-02-26T17:40:24.633Z,54.70
2019-02-26T17:42:51.238Z,55.50
2019-02-26T17:45:27.725Z,55.00
2019-02-26T17:47:56.475Z,56.70
2019-02-26T17:50:34.317Z,57.20
2019-02-26T17:53:02.363Z,56.00
2019-02-26T17:55:28.494Z,57.00
2019-02-26T17:57:54.566Z,56.80
2019-02-26T18:00:44.480Z,56.90
2019-02-26T18:03:10.507Z,57.60
2019-02-26T18:05:39.321Z,57.70
2019-02-26T18:08:04.648Z,57.80
2019-02-26T18:10:30.677Z,57.70
2019-02-26T18:12:56.744Z,57.70
2019-02-26T18:15:23.188Z,57.70
2019-02-26T18:17:49.271Z,57.30
2019-02-26T18:20:20.556Z,57.30
2019-02-26T18:22:46.704Z,57.70
2019-02-26T18:25:20.354Z,57.50
2019-02-26T18:27:46.774Z,58.20
2019-02-26T18:30:15.221Z,59.10
2019-02-26T18:32:49.804Z,59.30
2019-02-26T18:35:09.219Z,59.80
2019-02-26T18:37:35.362Z,59.70
2019-02-26T18:40:01.387Z,59.70
2019-02-26T18:42:27.460Z,59.90
2019-02-26T18:44:54.173Z,59.70
2019-02-26T18:47:20.740Z,59.70
2019-02-26T18:49:46.868Z,60.50
2019-02-26T18:52:12.920Z,59.40
2019-02-26T18:54:38.940Z,59.50
2019-02-26T18:57:04.979Z,60.40
2019-02-26T18:59:31.000Z,60.00
2019-02-26T19:01:57.044Z,61.40
2019-02-26T19:04:23.082Z,60.50
2019-02-26T19:06:49.127Z,60.30
2019-02-26T19:09:16.144Z,60.20
2019-02-26T19:11:42.200Z,60.10
2019-02-26T19:14:09.236Z,60.30
2019-02-26T19:16:36.019Z,59.70
2019-02-26T19:19:02.068Z,59.50
2019-02-26T19:21:28.089Z,59.50
2019-02-26T19:23:54.131Z,59.60
2019-02-26T19:26:20.148Z,59.30
2019-02-26T19:28:46.223Z,59.20
2019-02-26T19:31:12.303Z,59.00
2019-02-26T19:33:38.359Z,59.60
2019-02-26T19:36:04.466Z,59.60
2019-02-26T19:38:30.599Z,59.80
2019-02-26T19:41:12.655Z,60.00
2019-02-26T19:43:40.375Z,60.80
2019-02-26T19:46:06.406Z,61.30
2019-02-26T19:48:34.033Z,62.00
2019-02-26T19:51:00.428Z,62.10
2019-02-26T19:53:26.649Z,62.80
2019-02-26T19:55:53.184Z,62.30
2019-02-26T19:58:19.276Z,62.30
2019-02-26T20:00:45.292Z,62.60
2019-02-26T20:03:11.339Z,63.10
2019-02-26T20:05:37.363Z,62.90
2019-02-26T20:08:05.298Z,63.20
2019-02-26T20:10:31.352Z,62.40
2019-02-26T20:13:00.541Z,64.30
2019-02-26T20:15:25.312Z,63.70
2019-02-26T20:17:51.409Z,64.40
2019-02-26T20:20:41.019Z,64.70
2019-02-26T20:23:07.152Z,64.20
2019-02-26T20:25:33.211Z,64.40
2019-02-26T20:28:05.301Z,65.00
2019-02-26T20:30:27.184Z,65.40
2019-02-26T20:32:53.248Z,65.00
2019-02-26T20:35:19.272Z,65.60
2019-02-26T20:37:45.328Z,65.90
2019-02-26T20:40:16.910Z,66.70
2019-02-26T20:42:43.201Z,66.50
2019-02-26T20:45:12.323Z,66.60
2019-02-26T20:47:38.353Z,66.30
2019-02-26T20:50:09.666Z,66.70
2019-02-26T20:52:35.739Z,67.10
2019-02-26T20:55:01.792Z,68.00
2019-02-26T20:57:27.847Z,67.90
2019-02-26T20:59:53.907Z,68.80
2019-02-26T21:02:19.930Z,69.20
2019-02-26T21:04:46.072Z,69.40
2019-02-26T21:07:13.620Z,69.40
2019-02-26T21:09:41.058Z,69.90
2019-02-26T21:12:07.800Z,69.70
2019-02-26T21:14:33.860Z,69.40
2019-02-26T21:16:59.876Z,69.80
2019-02-26T21:19:27.009Z,70.40
2019-02-26T21:21:53.040Z,70.60
2019-02-26T21:24:19.085Z,71.00
2019-02-26T21:26:45.181Z,71.50
2019-02-26T21:29:11.979Z,71.40
2019-02-26T21:31:38.210Z,70.90
2019-02-26T21:34:04.465Z,71.90
2019-02-26T21:36:30.564Z,73.20
2019-02-26T21:38:56.603Z,73.30
2019-02-26T21:41:23.545Z,73.40
2019-02-26T21:43:50.225Z,73.40
2019-02-26T21:46:16.251Z,73.80
2019-02-26T21:48:42.281Z,74.10
2019-02-26T21:51:08.354Z,74.20
2019-02-26T21:53:34.385Z,74.60
2019-02-26T21:56:00.404Z,74.70
2019-02-26T21:58:26.793Z,74.70
2019-02-26T22:00:54.584Z,74.50
2019-02-26T22:03:24.606Z,74.60
2019-02-26T22:05:48.540Z,74.70
2019-02-26T22:08:14.559Z,74.60
2019-02-26T22:10:42.795Z,75.50
2019-02-26T22:13:08.524Z,74.80
2019-02-26T22:15:36.148Z,75.00
2019-02-26T22:18:02.452Z,74.80
2019-02-26T22:20:36.154Z,74.60
2019-02-26T22:22:57.901Z,74.40
2019-02-26T22:25:24.793Z,74.70
2019-02-26T22:27:50.809Z,74.70
2019-02-26T22:30:21.564Z,74.70
2019-02-26T22:32:45.684Z,74.80
2019-02-26T22:35:12.097Z,74.80
2019-02-26T22:37:38.999Z,75.60
2019-02-26T22:40:08.619Z,76.30
2019-02-26T22:42:54.552Z,76.60
2019-02-26T22:45:22.201Z,76.50
2019-02-26T22:47:48.418Z,76.30
2019-02-26T22:50:15.855Z,76.50
2019-02-26T22:52:41.983Z,76.80
2019-02-26T22:55:10.948Z,76.50
2019-02-26T22:57:36.976Z,76.60
2019-02-26T23:00:11.071Z,77.00
2019-02-26T23:02:40.613Z,77.30
2019-02-26T23:05:05.571Z,78.00
2019-02-26T23:07:31.593Z,78.50
2019-02-26T23:09:57.672Z,78.90
2019-02-26T23:12:24.195Z,79.30
2019-02-26T23:14:50.316Z,79.50
2019-02-26T23:17:16.681Z,79.70
2019-02-26T23:19:42.771Z,79.50
2019-02-26T23:22:08.988Z,80.30
2019-02-26T23:24:35.124Z,80.30
2019-02-26T23:27:01.149Z,80.50
2019-02-26T23:29:28.106Z,80.70
2019-02-26T23:31:55.108Z,80.60
2019-02-26T23:34:22.566Z,80.50
2019-02-26T23:36:48.928Z,80.40
2019-02-26T23:39:15.044Z,80.20
2019-02-26T23:41:41.083Z,81.20
2019-02-26T23:44:07.207Z,80.80
2019-02-26T23:46:33.255Z,80.80
2019-02-26T23:48:59.273Z,81.80
2019-02-26T23:51:25.307Z,81.70
2019-02-26T23:53:51.889Z,81.90
2019-02-26T23:56:20.236Z,82.20
2019-02-26T23:58:46.257Z,82.20
